Time;durP1;ratioP1;P1;durP2;ratioP2;P2;SDS_P1;SDS_P2;PMS_P1;PMS_P2;Temp;Humidity;BMP_temperature;BMP_pressure;BME280_temperature;BME280_humidity;BME280_pressure;Samples;Min_cycle;Max_cycle;Signal;HPM_P1;HPM_P2
2023/10/23 00:00:08;;;;;;;4.77;2.27;;;;;;;;;;6185270;23;20175;-88
2023/10/23 00:02:38;;;;;;;5.20;4.03;;;;;;;;;;6185592;23;20180;-88
2023/10/23 00:05:07;;;;;;;2.27;1.90;;;;;;;;;;6185086;23;20176;-88
2023/10/23 00:07:37;;;;;;;7.17;3.63;;;;;;;;;;6184737;23;20255;-88
2023/10/23 00:10:06;;;;;;;6.50;5.40;;;;;;;;;;6185019;23;20176;-88
2023/10/23 00:12:35;;;;;;;6.10;4.97;;;;;;;;;;6184657;23;20188;-88
2023/10/23 00:15:04;;;;;;;5.47;4.63;;;;;;;;;;6184467;23;20236;-88
2023/10/23 00:17:32;;;;;;;7.53;5.07;;;;;;;;;;6184104;23;20315;-88
2023/10/23 00:20:02;;;;;;;6.27;4.97;;;;;;;;;;6185223;23;20200;-88
2023/10/23 00:22:30;;;;;;;8.63;7.00;;;;;;;;;;6184873;23;20177;-89
2023/10/23 00:25:00;;;;;;;6.23;5.30;;;;;;;;;;6184360;23;20275;-88
2023/10/23 00:27:29;;;;;;;9.87;3.30;;;;;;;;;;6184400;23;20208;-88
2023/10/23 00:29:57;;;;;;;9.17;6.67;;;;;;;;;;6185065;23;20176;-89
2023/10/23 00:32:26;;;;;;;12.83;9.50;;;;;;;;;;6184994;23;20181;-88
2023/10/23 00:34:54;;;;;;;12.53;6.17;;;;;;;;;;6184501;23;20275;-88
2023/10/23 00:37:23;;;;;;;7.33;5.33;;;;;;;;;;6184339;23;20198;-89
2023/10/23 00:39:51;;;;;;;7.20;5.37;;;;;;;;;;6184838;23;20183;-88
2023/10/23 00:42:21;;;;;;;3.77;3.40;;;;;;;;;;6184579;23;20173;-88
2023/10/23 00:44:50;;;;;;;8.73;5.47;;;;;;;;;;6183820;23;20236;-88
2023/10/23 00:47:21;;;;;;;9.60;6.03;;;;;;;;;;6184618;23;20165;-88
2023/10/23 00:49:49;;;;;;;8.97;7.20;;;;;;;;;;6184727;23;20207;-88
2023/10/23 00:52:18;;;;;;;12.93;6.80;;;;;;;;;;6184392;23;20175;-88
2023/10/23 00:54:47;;;;;;;12.80;6.70;;;;;;;;;;6183586;23;20174;-88
2023/10/23 00:57:16;;;;;;;6.23;5.63;;;;;;;;;;6184349;23;20210;-88
2023/10/23 00:59:45;;;;;;;7.70;5.33;;;;;;;;;;6184867;23;20180;-88
2023/10/23 01:02:14;;;;;;;1.20;1.20;;;;;;;;;;6184605;23;20178;-88
2023/10/23 01:04:43;;;;;;;9.70;7.17;;;;;;;;;;6184101;23;20180;-88
2023/10/23 01:07:11;;;;;;;8.60;6.00;;;;;;;;;;6184636;23;20364;-88
2023/10/23 01:09:40;;;;;;;12.30;7.43;;;;;;;;;;6184473;23;20181;-88
2023/10/23 01:12:08;;;;;;;7.17;5.43;;;;;;;;;;6184671;23;20176;-90
2023/10/23 01:14:37;;;;;;;10.23;6.80;;;;;;;;;;6183488;23;20213;-88
2023/10/23 01:17:08;;;;;;;7.67;6.00;;;;;;;;;;6184288;23;20196;-88
2023/10/23 01:19:36;;;;;;;5.17;4.47;;;;;;;;;;6184521;23;20234;-88
2023/10/23 01:22:05;;;;;;;6.53;4.70;;;;;;;;;;6185257;23;20180;-88
2023/10/23 01:24:34;;;;;;;7.47;5.30;;;;;;;;;;6183855;23;20183;-88
2023/10/23 01:27:04;;;;;;;5.20;4.47;;;;;;;;;;6184260;23;20169;-88
2023/10/23 01:29:33;;;;;;;5.83;5.07;;;;;;;;;;6184805;23;20175;-88
2023/10/23 01:32:02;;;;;;;6.33;5.43;;;;;;;;;;6184178;23;20174;-88
2023/10/23 01:34:31;;;;;;;10.90;7.57;;;;;;;;;;6183805;23;20227;-88
2023/10/23 01:36:59;;;;;;;6.80;6.10;;;;;;;;;;6184978;23;20196;-88
2023/10/23 01:39:28;;;;;;;5.10;4.60;;;;;;;;;;6184484;23;20173;-87
2023/10/23 01:41:57;;;;;;;1.50;1.40;;;;;;;;;;6184838;23;20266;-88
2023/10/23 01:44:26;;;;;;;1.93;1.93;;;;;;;;;;6183997;23;20185;-88
2023/10/23 01:46:55;;;;;;;1.30;1.30;;;;;;;;;;6184413;23;20259;-88
2023/10/23 01:49:24;;;;;;;3.33;3.13;;;;;;;;;;6183885;23;20173;-88
2023/10/23 01:51:52;;;;;;;4.93;4.17;;;;;;;;;;6183686;23;20183;-88
2023/10/23 01:54:21;;;;;;;8.37;5.83;;;;;;;;;;6183854;23;20179;-88
2023/10/23 01:56:49;;;;;;;6.30;5.70;;;;;;;;;;6183986;23;20201;-88
2023/10/23 01:59:18;;;;;;;12.53;6.67;;;;;;;;;;6184275;23;20214;-88
2023/10/23 02:01:48;;;;;;;5.60;2.70;;;;;;;;;;6183198;23;20171;-88
2023/10/23 02:04:16;;;;;;;2.70;2.50;;;;;;;;;;6184040;23;20178;-88
2023/10/23 02:06:45;;;;;;;1.13;1.10;;;;;;;;;;6183876;23;20204;-87
2023/10/23 02:09:16;;;;;;;5.57;5.07;;;;;;;;;;6184142;23;20239;-88
2023/10/23 02:11:44;;;;;;;9.57;8.47;;;;;;;;;;6183802;23;20184;-88
2023/10/23 02:14:13;;;;;;;5.33;4.80;;;;;;;;;;6183807;23;20176;-87
2023/10/23 02:16:41;;;;;;;4.60;4.10;;;;;;;;;;6183791;23;20183;-88
2023/10/23 02:19:11;;;;;;;11.20;7.20;;;;;;;;;;6183626;23;20207;-88
2023/10/23 02:21:40;;;;;;;7.83;4.20;;;;;;;;;;6183044;23;20172;-88
2023/10/23 02:24:09;;;;;;;9.27;6.77;;;;;;;;;;6183708;23;20261;-88
2023/10/23 02:26:38;;;;;;;3.13;2.67;;;;;;;;;;6183386;23;20179;-88
2023/10/23 02:29:06;;;;;;;11.53;7.17;;;;;;;;;;6183930;23;20522;-88
2023/10/23 02:31:36;;;;;;;7.50;6.10;;;;;;;;;;6183630;23;20176;-88
2023/10/23 02:34:05;;;;;;;1.87;1.77;;;;;;;;;;6183856;23;20175;-89
2023/10/23 02:36:35;;;;;;;5.23;4.10;;;;;;;;;;6183688;23;20234;-88
2023/10/23 02:39:04;;;;;;;6.50;5.87;;;;;;;;;;6183531;23;20205;-88
2023/10/23 02:41:32;;;;;;;3.07;2.77;;;;;;;;;;6183827;23;20324;-88
2023/10/23 02:44:01;;;;;;;4.13;2.97;;;;;;;;;;6183569;23;20185;-88
2023/10/23 02:46:29;;;;;;;2.63;2.33;;;;;;;;;;6183694;23;20169;-88
2023/10/23 02:48:58;;;;;;;1.97;1.80;;;;;;;;;;6183640;23;20187;-88
2023/10/23 02:51:27;;;;;;;8.60;6.17;;;;;;;;;;6182785;23;20183;-88
2023/10/23 02:53:57;;;;;;;12.67;8.83;;;;;;;;;;6183946;23;20173;-87
2023/10/23 02:56:25;;;;;;;14.53;11.63;;;;;;;;;;6183204;23;20177;-88
2023/10/23 02:58:54;;;;;;;11.07;9.97;;;;;;;;;;6184183;23;20493;-88
2023/10/23 03:01:23;;;;;;;9.57;8.50;;;;;;;;;;6183200;23;20188;-88
2023/10/23 03:03:52;;;;;;;10.73;8.50;;;;;;;;;;6183948;23;20175;-88
2023/10/23 03:06:21;;;;;;;6.40;5.40;;;;;;;;;;6183745;23;20172;-88
2023/10/23 03:08:50;;;;;;;10.43;8.13;;;;;;;;;;6183823;23;20168;-88
2023/10/23 03:11:20;;;;;;;3.97;3.53;;;;;;;;;;6183495;23;20259;-88
2023/10/23 03:13:48;;;;;;;0.60;0.60;;;;;;;;;;6185261;23;20181;-88
2023/10/23 03:16:17;;;;;;;1.27;1.27;;;;;;;;;;6185620;23;20205;-88
2023/10/23 03:18:45;;;;;;;0.70;0.70;;;;;;;;;;6184703;23;20196;-88
2023/10/23 03:21:14;;;;;;;0.60;0.60;;;;;;;;;;6184587;23;20173;-88
2023/10/23 03:23:43;;;;;;;5.07;3.63;;;;;;;;;;6185525;23;20193;-88
2023/10/23 03:26:11;;;;;;;0.87;0.87;;;;;;;;;;6184812;23;20196;-88
2023/10/23 03:28:41;;;;;;;0.60;0.60;;;;;;;;;;6185034;23;20183;-88
2023/10/23 03:31:09;;;;;;;0.60;0.60;;;;;;;;;;6185139;23;20172;-88
2023/10/23 03:33:38;;;;;;;0.60;0.60;;;;;;;;;;6185858;23;20179;-88
2023/10/23 03:36:06;;;;;;;1.67;1.57;;;;;;;;;;6184542;23;20173;-88
2023/10/23 03:38:35;;;;;;;7.73;5.57;;;;;;;;;;6184481;23;20193;-88
2023/10/23 03:41:04;;;;;;;9.93;7.53;;;;;;;;;;6185227;23;20192;-88
2023/10/23 03:43:33;;;;;;;4.63;4.23;;;;;;;;;;6185482;23;20181;-88
2023/10/23 03:46:06;;;;;;;2.83;2.33;;;;;;;;;;6184605;23;20207;-88
2023/10/23 03:48:36;;;;;;;0.60;0.60;;;;;;;;;;6184392;23;20190;-88
2023/10/23 03:51:05;;;;;;;1.53;1.47;;;;;;;;;;6184851;23;20229;-88
2023/10/23 03:53:33;;;;;;;11.23;8.77;;;;;;;;;;6184995;23;20185;-88
2023/10/23 03:56:02;;;;;;;3.63;1.87;;;;;;;;;;6185150;23;20178;-88
2023/10/23 03:58:30;;;;;;;4.77;4.30;;;;;;;;;;6184491;23;20184;-88
2023/10/23 04:00:59;;;;;;;1.30;1.30;;;;;;;;;;6185365;23;20180;-88
2023/10/23 04:03:29;;;;;;;1.47;1.47;;;;;;;;;;6185098;23;20218;-88
2023/10/23 04:05:58;;;;;;;4.30;4.20;;;;;;;;;;6185138;23;20181;-88
2023/10/23 04:08:26;;;;;;;1.20;1.20;;;;;;;;;;6184954;23;20260;-88
2023/10/23 04:10:55;;;;;;;14.40;9.57;;;;;;;;;;6185300;23;20176;-88
2023/10/23 04:13:23;;;;;;;8.43;7.47;;;;;;;;;;6185744;23;20176;-88
2023/10/23 04:15:57;;;;;;;9.23;7.87;;;;;;;;;;6184733;23;20223;-88
2023/10/23 04:18:26;;;;;;;9.87;3.97;;;;;;;;;;6184150;23;20196;-88
2023/10/23 04:21:07;;;;;;;0.70;0.70;;;;;;;;;;6185599;23;20176;-88
2023/10/23 04:23:36;;;;;;;0.60;0.60;;;;;;;;;;6185182;23;20278;-88
2023/10/23 04:26:05;;;;;;;0.60;0.60;;;;;;;;;;6184405;23;20177;-88
2023/10/23 04:28:34;;;;;;;0.60;0.60;;;;;;;;;;6184668;23;20181;-88
2023/10/23 04:31:03;;;;;;;0.60;0.60;;;;;;;;;;6185173;23;20183;-88
2023/10/23 04:33:32;;;;;;;0.90;0.90;;;;;;;;;;6184993;23;20173;-88
2023/10/23 04:36:00;;;;;;;0.60;0.60;;;;;;;;;;6184267;23;20176;-88
2023/10/23 04:38:30;;;;;;;0.60;0.60;;;;;;;;;;6184047;23;20248;-88
2023/10/23 04:40:59;;;;;;;1.17;1.17;;;;;;;;;;6185025;23;20200;-88
2023/10/23 04:43:27;;;;;;;0.60;0.60;;;;;;;;;;6184629;23;20172;-87
2023/10/23 04:45:57;;;;;;;0.60;0.60;;;;;;;;;;6184644;23;20172;-88
2023/10/23 04:48:26;;;;;;;0.90;0.90;;;;;;;;;;6183861;23;20255;-88
2023/10/23 04:50:59;;;;;;;1.20;1.20;;;;;;;;;;6184016;23;20211;-88
2023/10/23 04:53:28;;;;;;;0.60;0.60;;;;;;;;;;6184281;23;20200;-88
2023/10/23 04:55:58;;;;;;;0.50;0.50;;;;;;;;;;6183727;23;20173;-88
2023/10/23 04:58:27;;;;;;;0.60;0.60;;;;;;;;;;6184096;23;20194;-88
2023/10/23 05:00:55;;;;;;;0.97;0.97;;;;;;;;;;6184502;23;20230;-90
2023/10/23 05:03:24;;;;;;;0.80;0.80;;;;;;;;;;6184092;23;20177;-88
2023/10/23 05:05:53;;;;;;;0.60;0.60;;;;;;;;;;6185247;23;20223;-88
2023/10/23 05:08:21;;;;;;;0.63;0.63;;;;;;;;;;6185012;23;20183;-90
2023/10/23 05:10:50;;;;;;;0.60;0.60;;;;;;;;;;6185709;23;20172;-90
2023/10/23 05:13:20;;;;;;;0.60;0.60;;;;;;;;;;6185804;23;20172;-90
2023/10/23 05:15:49;;;;;;;2.00;2.00;;;;;;;;;;6185235;23;20244;-90
2023/10/23 05:18:17;;;;;;;0.47;0.47;;;;;;;;;;6185989;23;20188;-90
2023/10/23 05:20:46;;;;;;;1.53;1.53;;;;;;;;;;6186730;23;20436;-88
2023/10/23 05:23:15;;;;;;;0.60;0.60;;;;;;;;;;6185315;23;20212;-88
2023/10/23 05:25:43;;;;;;;0.60;0.60;;;;;;;;;;6184783;23;20178;-88
2023/10/23 05:28:12;;;;;;;0.70;0.70;;;;;;;;;;6184903;23;20184;-86
2023/10/23 05:30:41;;;;;;;0.60;0.60;;;;;;;;;;6185253;23;20169;-85
2023/10/23 05:33:10;;;;;;;1.43;1.33;;;;;;;;;;6184203;23;20189;-86
2023/10/23 05:35:38;;;;;;;0.70;0.70;;;;;;;;;;6183136;23;20198;-86
2023/10/23 05:38:07;;;;;;;0.60;0.60;;;;;;;;;;6183728;23;20201;-86
2023/10/23 05:40:35;;;;;;;11.27;8.13;;;;;;;;;;6183576;23;20208;-86
2023/10/23 05:43:04;;;;;;;33.17;9.23;;;;;;;;;;6183641;23;20176;-86
2023/10/23 05:45:32;;;;;;;249.27;33.83;;;;;;;;;;6183614;23;20175;-86
2023/10/23 05:48:02;;;;;;;379.63;43.40;;;;;;;;;;6184155;23;20180;-85
2023/10/23 05:50:31;;;;;;;180.13;22.40;;;;;;;;;;6183865;23;20180;-86
2023/10/23 05:52:59;;;;;;;470.30;51.47;;;;;;;;;;6183564;23;20184;-86
2023/10/23 05:55:28;;;;;;;238.47;24.27;;;;;;;;;;6183110;23;20231;-86
2023/10/23 05:57:58;;;;;;;115.93;14.90;;;;;;;;;;6183834;23;20184;-86
2023/10/23 06:00:27;;;;;;;438.20;52.20;;;;;;;;;;6184112;23;20204;-84
2023/10/23 06:02:55;;;;;;;173.27;18.37;;;;;;;;;;6184137;23;20178;-84
2023/10/23 06:05:25;;;;;;;344.30;47.03;;;;;;;;;;6183304;23;20192;-84
2023/10/23 06:07:54;;;;;;;266.03;31.10;;;;;;;;;;6183878;23;20167;-84
2023/10/23 06:10:22;;;;;;;118.70;12.43;;;;;;;;;;6183726;23;20175;-84
2023/10/23 06:12:51;;;;;;;293.27;34.80;;;;;;;;;;6183759;23;20204;-84
2023/10/23 06:15:20;;;;;;;150.83;21.30;;;;;;;;;;6183108;23;20265;-84
2023/10/23 06:17:50;;;;;;;1.53;1.43;;;;;;;;;;6183706;23;20264;-84
2023/10/23 06:20:18;;;;;;;3.07;2.87;;;;;;;;;;6184315;23;20200;-84
2023/10/23 06:22:48;;;;;;;2.67;1.10;;;;;;;;;;6184458;23;20233;-84
2023/10/23 06:25:17;;;;;;;2.87;2.67;;;;;;;;;;6183424;23;20184;-84
2023/10/23 06:27:45;;;;;;;2.83;2.67;;;;;;;;;;6183603;23;20184;-85
2023/10/23 06:30:14;;;;;;;11.83;5.47;;;;;;;;;;6183947;23;20229;-84
2023/10/23 06:32:42;;;;;;;62.27;12.53;;;;;;;;;;6183245;23;20182;-84
2023/10/23 06:35:11;;;;;;;103.67;19.97;;;;;;;;;;6183495;23;20176;-84
2023/10/23 06:37:39;;;;;;;79.30;13.33;;;;;;;;;;6183351;23;20176;-83
2023/10/23 06:40:10;;;;;;;232.87;38.70;;;;;;;;;;6183343;23;20279;-83
2023/10/23 06:42:38;;;;;;;200.50;37.73;;;;;;;;;;6183839;23;20258;-84
2023/10/23 06:45:07;;;;;;;162.63;30.70;;;;;;;;;;6183359;23;20177;-83
2023/10/23 06:47:37;;;;;;;177.27;36.10;;;;;;;;;;6184099;23;20171;-83
2023/10/23 06:50:06;;;;;;;92.63;18.97;;;;;;;;;;6185691;23;20180;-84
2023/10/23 06:52:35;;;;;;;13.87;4.57;;;;;;;;;;6185923;23;20480;-84
2023/10/23 06:55:05;;;;;;;100.57;19.10;;;;;;;;;;6185185;23;20168;-83
2023/10/23 06:57:35;;;;;;;35.23;8.60;;;;;;;;;;6185507;23;20180;-83
2023/10/23 07:00:05;;;;;;;63.10;15.10;;;;;;;;;;6185284;23;20193;-83
2023/10/23 07:02:33;;;;;;;100.43;20.67;;;;;;;;;;6185794;23;20175;-84
2023/10/23 07:05:02;;;;;;;2.20;2.03;;;;;;;;;;6185664;23;20311;-84
2023/10/23 07:07:30;;;;;;;66.93;10.27;;;;;;;;;;6185522;23;20184;-84
2023/10/23 07:09:59;;;;;;;10.37;3.17;;;;;;;;;;6185808;23;20204;-84
2023/10/23 07:12:30;;;;;;;12.80;5.53;;;;;;;;;;6185129;23;20189;-84
2023/10/23 07:15:01;;;;;;;80.63;10.97;;;;;;;;;;6185190;23;20210;-84
2023/10/23 07:17:29;;;;;;;107.37;17.47;;;;;;;;;;6184830;23;20179;-84
2023/10/23 07:19:58;;;;;;;10.63;4.20;;;;;;;;;;6185249;23;20192;-84
2023/10/23 07:22:27;;;;;;;147.73;31.53;;;;;;;;;;6185193;23;20189;-83
2023/10/23 07:24:56;;;;;;;59.70;14.83;;;;;;;;;;6185795;23;20177;-84
2023/10/23 07:27:25;;;;;;;33.07;8.40;;;;;;;;;;6185343;23;20414;-84
2023/10/23 07:29:57;;;;;;;54.20;11.33;;;;;;;;;;6184773;23;20246;-84
2023/10/23 07:32:27;;;;;;;6.13;1.87;;;;;;;;;;6184826;23;20259;-84
2023/10/23 07:34:55;;;;;;;136.07;17.20;;;;;;;;;;6185457;23;20200;-84
2023/10/23 07:37:24;;;;;;;176.47;24.27;;;;;;;;;;6184782;23;20176;-84
2023/10/23 07:39:53;;;;;;;99.23;18.10;;;;;;;;;;6184492;23;20187;-84
2023/10/23 07:42:21;;;;;;;132.60;24.43;;;;;;;;;;6184625;23;20262;-84
2023/10/23 07:44:50;;;;;;;147.03;21.03;;;;;;;;;;6184722;23;20211;-84
2023/10/23 07:47:19;;;;;;;2.33;2.23;;;;;;;;;;6184815;23;20177;-84
2023/10/23 07:49:48;;;;;;;98.97;9.33;;;;;;;;;;6184121;23;20179;-85
2023/10/23 07:52:17;;;;;;;11.90;3.80;;;;;;;;;;6184566;23;20173;-84
2023/10/23 07:54:45;;;;;;;0.83;0.83;;;;;;;;;;6184357;23;20192;-84
2023/10/23 07:57:14;;;;;;;2.43;1.80;;;;;;;;;;6184638;23;20177;-84
2023/10/23 07:59:42;;;;;;;6.70;4.67;;;;;;;;;;6183032;23;20192;-84
2023/10/23 08:02:11;;;;;;;38.00;2.60;;;;;;;;;;6184112;23;20178;-84
2023/10/23 08:04:40;;;;;;;8.27;4.63;;;;;;;;;;6184913;23;20272;-84
2023/10/23 08:07:10;;;;;;;1.67;1.67;;;;;;;;;;6184300;23;20173;-85
2023/10/23 08:09:39;;;;;;;7.83;2.87;;;;;;;;;;6184227;23;20200;-84
2023/10/23 08:12:08;;;;;;;26.07;4.33;;;;;;;;;;6184240;23;20203;-84
2023/10/23 08:14:39;;;;;;;15.83;5.40;;;;;;;;;;6184371;23;20214;-84
2023/10/23 08:17:08;;;;;;;20.67;2.87;;;;;;;;;;6184377;23;20187;-84
2023/10/23 08:19:36;;;;;;;6.33;1.80;;;;;;;;;;6184138;23;20195;-85
2023/10/23 08:22:07;;;;;;;0.70;0.70;;;;;;;;;;6184503;23;20197;-84
2023/10/23 08:24:37;;;;;;;2.50;2.27;;;;;;;;;;6184805;23;20273;-84
2023/10/23 08:27:06;;;;;;;42.43;6.00;;;;;;;;;;6184109;23;20181;-84
2023/10/23 08:29:34;;;;;;;6.20;4.17;;;;;;;;;;6183457;23;20184;-84
2023/10/23 08:32:03;;;;;;;91.77;8.27;;;;;;;;;;6184084;23;20170;-84
2023/10/23 08:34:31;;;;;;;27.53;6.63;;;;;;;;;;6184377;23;20189;-84
2023/10/23 08:37:00;;;;;;;4.00;2.53;;;;;;;;;;6184332;23;20349;-84
2023/10/23 08:39:29;;;;;;;27.07;6.70;;;;;;;;;;6184173;23;20335;-84
2023/10/23 08:41:59;;;;;;;40.00;9.37;;;;;;;;;;6184824;23;20391;-84
2023/10/23 08:44:28;;;;;;;5.83;3.37;;;;;;;;;;6184463;23;20467;-84
2023/10/23 08:46:57;;;;;;;8.40;6.00;;;;;;;;;;6184697;23;20334;-83
2023/10/23 08:49:27;;;;;;;2.10;2.00;;;;;;;;;;6183797;23;20179;-84
2023/10/23 08:51:59;;;;;;;14.90;2.73;;;;;;;;;;6184075;23;20227;-84
2023/10/23 08:54:29;;;;;;;1.40;1.40;;;;;;;;;;6184241;23;20176;-84
2023/10/23 08:57:02;;;;;;;13.63;6.17;;;;;;;;;;6183783;23;20182;-84
2023/10/23 08:59:30;;;;;;;3.83;2.77;;;;;;;;;;6184286;23;20174;-84
2023/10/23 09:02:00;;;;;;;5.93;1.27;;;;;;;;;;6184138;23;20273;-83
2023/10/23 09:04:29;;;;;;;1.10;1.10;;;;;;;;;;6184102;23;20254;-84
2023/10/23 09:06:59;;;;;;;0.57;0.57;;;;;;;;;;6183631;23;20194;-84
2023/10/23 09:09:31;;;;;;;1.13;1.13;;;;;;;;;;6183913;23;20213;-84
2023/10/23 09:12:03;;;;;;;4.40;3.87;;;;;;;;;;6183778;23;20258;-84
2023/10/23 09:14:32;;;;;;;6.50;5.87;;;;;;;;;;6184415;23;20281;-84
2023/10/23 09:17:03;;;;;;;20.13;7.40;;;;;;;;;;6183673;23;20266;-84
2023/10/23 09:19:34;;;;;;;20.63;13.07;;;;;;;;;;6183795;23;20218;-84
2023/10/23 09:22:04;;;;;;;7.87;5.53;;;;;;;;;;6184100;23;20183;-84
2023/10/23 09:24:32;;;;;;;34.50;11.20;;;;;;;;;;6184235;23;20179;-83
2023/10/23 09:27:03;;;;;;;19.27;10.33;;;;;;;;;;6183056;23;20179;-84
2023/10/23 09:29:34;;;;;;;27.20;11.43;;;;;;;;;;6183875;23;20181;-84
2023/10/23 09:32:04;;;;;;;22.37;10.43;;;;;;;;;;6184168;23;20195;-84
2023/10/23 09:34:42;;;;;;;42.53;14.03;;;;;;;;;;6183583;23;20171;-84
2023/10/23 09:37:11;;;;;;;22.87;10.57;;;;;;;;;;6183003;23;20232;-84
2023/10/23 09:39:41;;;;;;;4.60;3.67;;;;;;;;;;6183452;23;20171;-84
2023/10/23 09:42:13;;;;;;;9.43;8.33;;;;;;;;;;6183984;23;20191;-83
2023/10/23 09:44:42;;;;;;;12.00;3.40;;;;;;;;;;6183562;23;20253;-84
2023/10/23 09:47:11;;;;;;;29.50;8.80;;;;;;;;;;6183066;23;20194;-84
2023/10/23 09:49:41;;;;;;;12.30;3.70;;;;;;;;;;6183982;23;20230;-84
2023/10/23 09:52:10;;;;;;;116.77;16.27;;;;;;;;;;6183628;23;20359;-83
2023/10/23 09:54:39;;;;;;;45.33;12.67;;;;;;;;;;6183353;23;20171;-84
2023/10/23 09:57:09;;;;;;;6.83;3.93;;;;;;;;;;6182757;23;20237;-84
2023/10/23 09:59:42;;;;;;;21.23;9.00;;;;;;;;;;6183826;23;20184;-84
2023/10/23 10:02:11;;;;;;;57.10;13.83;;;;;;;;;;6183369;23;20187;-84
2023/10/23 10:04:46;;;;;;;22.97;7.30;;;;;;;;;;6183561;23;20182;-84
2023/10/23 10:07:19;;;;;;;34.87;13.00;;;;;;;;;;6182679;23;20257;-83
2023/10/23 10:09:48;;;;;;;52.63;14.40;;;;;;;;;;6183765;23;20171;-84
2023/10/23 10:12:17;;;;;;;12.10;6.37;;;;;;;;;;6183761;23;20170;-83
2023/10/23 10:14:47;;;;;;;7.33;4.60;;;;;;;;;;6183175;23;20257;-84
2023/10/23 10:17:19;;;;;;;40.33;13.97;;;;;;;;;;6183179;23;20270;-83
2023/10/23 10:19:48;;;;;;;27.07;11.87;;;;;;;;;;6183501;23;20255;-84
2023/10/23 10:22:21;;;;;;;17.53;11.00;;;;;;;;;;6183621;23;20249;-83
2023/10/23 10:24:50;;;;;;;24.47;11.93;;;;;;;;;;6183544;23;20267;-83
2023/10/23 10:27:20;;;;;;;21.40;9.97;;;;;;;;;;6183079;23;20183;-83
2023/10/23 10:29:51;;;;;;;30.83;12.17;;;;;;;;;;6184212;23;20255;-83
2023/10/23 10:32:20;;;;;;;36.00;11.20;;;;;;;;;;6183449;23;20174;-83
2023/10/23 10:34:53;;;;;;;18.07;8.53;;;;;;;;;;6183048;23;20283;-83
2023/10/23 10:37:27;;;;;;;36.23;14.50;;;;;;;;;;6183411;23;20202;-83
2023/10/23 10:40:06;;;;;;;47.90;19.83;;;;;;;;;;6183801;23;20226;-83
2023/10/23 10:42:37;;;;;;;20.60;11.80;;;;;;;;;;6183122;23;20201;-84
2023/10/23 10:45:17;;;;;;;30.80;15.20;;;;;;;;;;6182643;23;20178;-83
2023/10/23 10:47:48;;;;;;;11.03;7.57;;;;;;;;;;6183779;23;20175;-83
2023/10/23 10:50:33;;;;;;;36.23;15.00;;;;;;;;;;6183262;23;20182;-83
2023/10/23 10:53:03;;;;;;;43.53;16.23;;;;;;;;;;6183016;23;20175;-84
2023/10/23 10:55:32;;;;;;;12.00;6.20;;;;;;;;;;6182991;23;20175;-84
2023/10/23 10:58:00;;;;;;;31.57;14.23;;;;;;;;;;6183433;23;20178;-83
2023/10/23 11:00:32;;;;;;;33.57;16.73;;;;;;;;;;6183777;23;20179;-83
2023/10/23 11:03:01;;;;;;;30.63;16.27;;;;;;;;;;6182977;23;20190;-82
2023/10/23 11:05:30;;;;;;;5.00;4.37;;;;;;;;;;6183713;23;20202;-83
2023/10/23 11:07:58;;;;;;;22.37;10.60;;;;;;;;;;6184201;23;20180;-83
2023/10/23 11:10:27;;;;;;;58.10;22.83;;;;;;;;;;6183761;23;20183;-83
2023/10/23 11:12:56;;;;;;;22.97;12.17;;;;;;;;;;6182960;23;20203;-83
2023/10/23 11:15:24;;;;;;;22.07;12.63;;;;;;;;;;6183660;23;20214;-83
2023/10/23 11:17:55;;;;;;;1.10;1.10;;;;;;;;;;6183892;23;20171;-83
2023/10/23 11:20:28;;;;;;;11.60;7.40;;;;;;;;;;6184693;23;20203;-83
2023/10/23 11:22:57;;;;;;;13.27;8.43;;;;;;;;;;6183421;23;20183;-83
2023/10/23 11:25:25;;;;;;;2.23;1.63;;;;;;;;;;6183270;23;20206;-83
2023/10/23 11:27:54;;;;;;;13.53;8.73;;;;;;;;;;6184770;23;20175;-83
2023/10/23 11:30:26;;;;;;;15.70;8.10;;;;;;;;;;6183528;23;20167;-83
2023/10/23 11:32:56;;;;;;;5.77;5.43;;;;;;;;;;6182993;23;20171;-83
2023/10/23 11:35:33;;;;;;;13.10;9.27;;;;;;;;;;6184528;23;20240;-83
2023/10/23 11:38:01;;;;;;;7.33;5.77;;;;;;;;;;6184764;23;20171;-83
2023/10/23 11:40:35;;;;;;;16.13;9.00;;;;;;;;;;6184950;23;20266;-83
2023/10/23 11:43:05;;;;;;;8.97;6.33;;;;;;;;;;6184719;23;20245;-83
2023/10/23 11:45:34;;;;;;;1.27;1.17;;;;;;;;;;6184492;23;20171;-83
2023/10/23 11:48:04;;;;;;;14.17;9.50;;;;;;;;;;6185076;23;20196;-84
2023/10/23 11:50:33;;;;;;;19.90;9.73;;;;;;;;;;6184611;23;20183;-83
2023/10/23 11:53:03;;;;;;;9.17;6.23;;;;;;;;;;6184055;23;20169;-84
2023/10/23 11:55:32;;;;;;;14.63;7.30;;;;;;;;;;6184535;23;20171;-83
2023/10/23 11:58:03;;;;;;;13.60;8.70;;;;;;;;;;6185898;23;20175;-83
2023/10/23 12:00:33;;;;;;;25.37;13.63;;;;;;;;;;6185144;23;20172;-84
2023/10/23 12:03:04;;;;;;;10.57;5.23;;;;;;;;;;6184191;23;20239;-83
2023/10/23 12:05:33;;;;;;;15.00;10.80;;;;;;;;;;6185294;23;20263;-84
2023/10/23 12:08:03;;;;;;;43.10;9.77;;;;;;;;;;6185731;23;20179;-84
2023/10/23 12:10:33;;;;;;;23.50;11.90;;;;;;;;;;6184250;23;20167;-84
2023/10/23 12:13:02;;;;;;;6.97;6.37;;;;;;;;;;6184071;23;20249;-84
2023/10/23 12:15:31;;;;;;;13.00;6.83;;;;;;;;;;6184530;23;20228;-84
2023/10/23 12:18:04;;;;;;;6.03;3.97;;;;;;;;;;6184668;23;20177;-84
2023/10/23 12:20:34;;;;;;;8.83;6.20;;;;;;;;;;6184549;23;20191;-84
2023/10/23 12:23:02;;;;;;;9.67;6.97;;;;;;;;;;6183945;23;20192;-84
2023/10/23 12:25:31;;;;;;;17.53;9.47;;;;;;;;;;6185113;23;20177;-84
2023/10/23 12:28:00;;;;;;;8.30;6.53;;;;;;;;;;6184523;23;20180;-85
2023/10/23 12:30:28;;;;;;;6.90;4.20;;;;;;;;;;6184035;23;20175;-85
2023/10/23 12:32:57;;;;;;;14.57;8.93;;;;;;;;;;6184644;23;20168;-85
2023/10/23 12:35:47;;;;;;;3.67;3.37;;;;;;;;;;6184060;23;20277;-85
2023/10/23 12:38:16;;;;;;;10.97;8.00;;;;;;;;;;6184563;23;20176;-85
2023/10/23 12:40:46;;;;;;;14.47;9.23;;;;;;;;;;6183912;23;20173;-86
2023/10/23 12:43:14;;;;;;;7.80;6.37;;;;;;;;;;6184660;23;20183;-85
2023/10/23 12:45:43;;;;;;;23.57;5.13;;;;;;;;;;6184164;23;20174;-85
2023/10/23 12:48:12;;;;;;;4.77;3.10;;;;;;;;;;6184653;23;20178;-85
2023/10/23 12:50:40;;;;;;;1.00;1.00;;;;;;;;;;6183317;23;20181;-85
2023/10/23 12:53:11;;;;;;;8.37;5.43;;;;;;;;;;6184971;23;20175;-85
2023/10/23 12:55:41;;;;;;;8.30;6.57;;;;;;;;;;6184124;23;20168;-85
2023/10/23 12:58:10;;;;;;;10.47;5.93;;;;;;;;;;6184274;23;20203;-85
2023/10/23 13:00:38;;;;;;;5.60;3.97;;;;;;;;;;6184117;23;20180;-85
2023/10/23 13:03:07;;;;;;;7.50;5.43;;;;;;;;;;6184446;23;20191;-85
2023/10/23 13:05:36;;;;;;;5.20;4.33;;;;;;;;;;6184075;23;20247;-85
2023/10/23 13:08:04;;;;;;;10.10;7.53;;;;;;;;;;6184881;23;20251;-85
2023/10/23 13:10:35;;;;;;;5.83;2.47;;;;;;;;;;6184183;23;20225;-85
2023/10/23 13:13:03;;;;;;;11.70;8.47;;;;;;;;;;6184500;23;20167;-85
2023/10/23 13:15:32;;;;;;;11.07;9.13;;;;;;;;;;6184393;23;20208;-85
2023/10/23 13:18:02;;;;;;;8.30;5.50;;;;;;;;;;6183983;23;20258;-85
2023/10/23 13:20:36;;;;;;;6.30;5.50;;;;;;;;;;6184571;23;20203;-85
2023/10/23 13:23:33;;;;;;;10.27;8.03;;;;;;;;;;6184230;23;20208;-85
2023/10/23 13:26:04;;;;;;;9.73;5.20;;;;;;;;;;6184305;23;20207;-85
2023/10/23 13:28:41;;;;;;;11.33;7.03;;;;;;;;;;6184273;23;20176;-85
2023/10/23 13:31:10;;;;;;;12.57;8.30;;;;;;;;;;6184493;23;20332;-86
2023/10/23 13:33:39;;;;;;;9.83;5.20;;;;;;;;;;6185363;23;20223;-86
2023/10/23 13:36:09;;;;;;;4.63;4.20;;;;;;;;;;6183957;23;20176;-86
2023/10/23 13:38:38;;;;;;;1.83;1.73;;;;;;;;;;6183847;23;20203;-86
2023/10/23 13:41:08;;;;;;;9.27;6.97;;;;;;;;;;6184544;23;20172;-86
2023/10/23 13:43:36;;;;;;;7.07;5.03;;;;;;;;;;6184265;23;20191;-86
2023/10/23 13:46:05;;;;;;;6.00;4.93;;;;;;;;;;6184468;23;20171;-86
2023/10/23 13:48:34;;;;;;;7.47;4.17;;;;;;;;;;6183569;23;20243;-86
2023/10/23 13:51:03;;;;;;;3.17;2.87;;;;;;;;;;6184601;23;20168;-86
2023/10/23 13:53:32;;;;;;;11.73;8.03;;;;;;;;;;6184379;23;20259;-86
2023/10/23 13:56:01;;;;;;;8.13;6.23;;;;;;;;;;6183454;23;20181;-86
2023/10/23 13:58:34;;;;;;;7.00;5.37;;;;;;;;;;6183752;23;20188;-86
2023/10/23 14:01:05;;;;;;;9.33;6.73;;;;;;;;;;6185067;23;20169;-87
2023/10/23 14:03:34;;;;;;;6.93;5.27;;;;;;;;;;6183797;23;20190;-86
2023/10/23 14:06:03;;;;;;;12.43;5.87;;;;;;;;;;6183813;23;20215;-86
2023/10/23 14:08:32;;;;;;;2.83;2.23;;;;;;;;;;6183782;23;20176;-86
2023/10/23 14:11:20;;;;;;;3.13;2.90;;;;;;;;;;6184275;23;20230;-86
2023/10/23 14:14:10;;;;;;;3.30;3.10;;;;;;;;;;6184036;23;20199;-86
2023/10/23 14:16:38;;;;;;;6.67;5.07;;;;;;;;;;6182933;23;20214;-86
2023/10/23 14:19:07;;;;;;;5.50;4.77;;;;;;;;;;6183943;23;20210;-86
2023/10/23 14:21:36;;;;;;;11.60;6.73;;;;;;;;;;6183844;23;20168;-86
2023/10/23 14:24:05;;;;;;;3.37;3.07;;;;;;;;;;6184567;23;20192;-86
2023/10/23 14:26:33;;;;;;;5.80;4.47;;;;;;;;;;6183782;23;20181;-86
2023/10/23 14:29:02;;;;;;;4.67;3.40;;;;;;;;;;6183468;23;20180;-86
2023/10/23 14:31:32;;;;;;;4.93;3.90;;;;;;;;;;6183473;23;20179;-86
2023/10/23 14:34:00;;;;;;;3.33;2.43;;;;;;;;;;6183721;23;20190;-86
2023/10/23 14:36:29;;;;;;;7.03;4.60;;;;;;;;;;6182616;23;20167;-86
2023/10/23 14:38:58;;;;;;;4.63;4.23;;;;;;;;;;6183260;23;20178;-87
2023/10/23 14:41:26;;;;;;;2.87;2.33;;;;;;;;;;6183523;23;20179;-86
2023/10/23 14:43:55;;;;;;;6.17;4.17;;;;;;;;;;6183017;23;20295;-86
2023/10/23 14:46:25;;;;;;;6.23;4.40;;;;;;;;;;6182658;23;20182;-86